sensor_id;sensor_type;location;lat;lon;timestamp;P1;durP1;ratioP1;P2;durP2;ratioP2
50591;SDS011;36548;50.506;30.834;2023-02-01T00:00:36;7.27;;;5.02;;
50591;SDS011;36548;50.506;30.834;2023-02-01T00:01:45;6.98;;;4.84;;
50591;SDS011;36548;50.506;30.834;2023-02-01T00:02:54;6.67;;;4.60;;
50591;SDS011;36548;50.506;30.834;2023-02-01T00:04:04;6.47;;;4.88;;
50591;SDS011;36548;50.506;30.834;2023-02-01T00:05:13;5.25;;;4.47;;
50591;SDS011;36548;50.506;30.834;2023-02-01T00:06:29;8.20;;;4.33;;
50591;SDS011;36548;50.506;30.834;2023-02-01T00:07:38;6.92;;;4.98;;
50591;SDS011;36548;50.506;30.834;2023-02-01T00:08:47;5.50;;;4.28;;
50591;SDS011;36548;50.506;30.834;2023-02-01T00:09:58;9.85;;;5.20;;
50591;SDS011;36548;50.506;30.834;2023-02-01T00:11:09;6.50;;;4.75;;
50591;SDS011;36548;50.506;30.834;2023-02-01T00:12:20;5.88;;;4.52;;
50591;SDS011;36548;50.506;30.834;2023-02-01T00:13:31;6.23;;;5.07;;
50591;SDS011;36548;50.506;30.834;2023-02-01T00:14:42;5.28;;;4.27;;
50591;SDS011;36548;50.506;30.834;2023-02-01T00:16:03;6.13;;;4.32;;
50591;SDS011;36548;50.506;30.834;2023-02-01T00:17:17;6.00;;;4.58;;
50591;SDS011;36548;50.506;30.834;2023-02-01T00:18:28;10.07;;;5.22;;
50591;SDS011;36548;50.506;30.834;2023-02-01T00:19:37;10.00;;;5.80;;
50591;SDS011;36548;50.506;30.834;2023-02-01T00:20:52;8.32;;;6.18;;
50591;SDS011;36548;50.506;30.834;2023-02-01T00:22:01;8.03;;;6.17;;
50591;SDS011;36548;50.506;30.834;2023-02-01T00:23:16;10.00;;;6.55;;
50591;SDS011;36548;50.506;30.834;2023-02-01T00:24:25;9.28;;;6.75;;
50591;SDS011;36548;50.506;30.834;2023-02-01T00:25:34;10.35;;;8.07;;
50591;SDS011;36548;50.506;30.834;2023-02-01T00:26:45;9.17;;;6.10;;
50591;SDS011;36548;50.506;30.834;2023-02-01T00:28:01;6.62;;;5.52;;
50591;SDS011;36548;50.506;30.834;2023-02-01T00:29:11;8.85;;;5.80;;
50591;SDS011;36548;50.506;30.834;2023-02-01T00:30:29;9.42;;;6.07;;
50591;SDS011;36548;50.506;30.834;2023-02-01T00:31:38;7.37;;;5.37;;
50591;SDS011;36548;50.506;30.834;2023-02-01T00:32:48;7.05;;;4.60;;
50591;SDS011;36548;50.506;30.834;2023-02-01T00:33:57;8.33;;;5.55;;
50591;SDS011;36548;50.506;30.834;2023-02-01T00:35:12;7.30;;;4.62;;
50591;SDS011;36548;50.506;30.834;2023-02-01T00:36:22;6.75;;;5.52;;
50591;SDS011;36548;50.506;30.834;2023-02-01T00:37:37;9.25;;;4.83;;
50591;SDS011;36548;50.506;30.834;2023-02-01T00:38:46;8.07;;;5.33;;
50591;SDS011;36548;50.506;30.834;2023-02-01T00:39:56;9.30;;;5.92;;
50591;SDS011;36548;50.506;30.834;2023-02-01T00:41:06;9.13;;;5.88;;
50591;SDS011;36548;50.506;30.834;2023-02-01T00:42:23;7.62;;;5.33;;
50591;SDS011;36548;50.506;30.834;2023-02-01T00:43:32;8.62;;;5.68;;
50591;SDS011;36548;50.506;30.834;2023-02-01T00:44:42;8.95;;;6.50;;
50591;SDS011;36548;50.506;30.834;2023-02-01T00:45:52;7.53;;;5.67;;
50591;SDS011;36548;50.506;30.834;2023-02-01T00:48:11;7.17;;;5.33;;
50591;SDS011;36548;50.506;30.834;2023-02-01T00:49:21;8.52;;;5.27;;
50591;SDS011;36548;50.506;30.834;2023-02-01T00:50:30;7.58;;;5.13;;
50591;SDS011;36548;50.506;30.834;2023-02-01T00:51:40;5.98;;;4.70;;
50591;SDS011;36548;50.506;30.834;2023-02-01T00:52:55;7.43;;;5.57;;
50591;SDS011;36548;50.506;30.834;2023-02-01T00:54:05;6.17;;;4.90;;
50591;SDS011;36548;50.506;30.834;2023-02-01T00:55:14;7.33;;;4.88;;
50591;SDS011;36548;50.506;30.834;2023-02-01T00:56:50;7.87;;;5.13;;
50591;SDS011;36548;50.506;30.834;2023-02-01T00:58:00;7.93;;;5.67;;
50591;SDS011;36548;50.506;30.834;2023-02-01T00:59:11;7.22;;;5.42;;
50591;SDS011;36548;50.506;30.834;2023-02-01T01:00:22;8.27;;;6.50;;
50591;SDS011;36548;50.506;30.834;2023-02-01T01:01:31;11.92;;;8.38;;
50591;SDS011;36548;50.506;30.834;2023-02-01T01:02:41;11.40;;;9.84;;
50591;SDS011;36548;50.506;30.834;2023-02-01T01:03:54;14.25;;;12.15;;
50591;SDS011;36548;50.506;30.834;2023-02-01T01:05:05;12.47;;;9.98;;
50591;SDS011;36548;50.506;30.834;2023-02-01T01:06:16;14.40;;;10.00;;
50591;SDS011;36548;50.506;30.834;2023-02-01T01:07:28;11.42;;;8.58;;
50591;SDS011;36548;50.506;30.834;2023-02-01T01:08:38;10.82;;;8.13;;
50591;SDS011;36548;50.506;30.834;2023-02-01T01:09:48;8.43;;;7.10;;
50591;SDS011;36548;50.506;30.834;2023-02-01T01:11:05;8.50;;;6.82;;
50591;SDS011;36548;50.506;30.834;2023-02-01T01:12:19;7.57;;;6.47;;
50591;SDS011;36548;50.506;30.834;2023-02-01T01:13:34;9.30;;;6.43;;
50591;SDS011;36548;50.506;30.834;2023-02-01T01:14:44;10.00;;;6.97;;
50591;SDS011;36548;50.506;30.834;2023-02-01T01:15:53;8.93;;;6.72;;
50591;SDS011;36548;50.506;30.834;2023-02-01T01:17:03;9.40;;;7.33;;
50591;SDS011;36548;50.506;30.834;2023-02-01T01:18:12;12.78;;;9.73;;
50591;SDS011;36548;50.506;30.834;2023-02-01T01:19:28;13.30;;;10.62;;
50591;SDS011;36548;50.506;30.834;2023-02-01T01:20:38;13.30;;;11.00;;
50591;SDS011;36548;50.506;30.834;2023-02-01T01:21:49;15.42;;;11.25;;
50591;SDS011;36548;50.506;30.834;2023-02-01T01:22:58;13.28;;;11.53;;
50591;SDS011;36548;50.506;30.834;2023-02-01T01:24:07;12.85;;;10.08;;
50591;SDS011;36548;50.506;30.834;2023-02-01T01:25:17;12.35;;;9.00;;
50591;SDS011;36548;50.506;30.834;2023-02-01T01:26:27;11.27;;;8.42;;
50591;SDS011;36548;50.506;30.834;2023-02-01T01:27:38;11.27;;;7.45;;
50591;SDS011;36548;50.506;30.834;2023-02-01T01:28:48;9.08;;;7.18;;
50591;SDS011;36548;50.506;30.834;2023-02-01T01:29:59;8.92;;;6.75;;
50591;SDS011;36548;50.506;30.834;2023-02-01T01:31:10;9.28;;;6.77;;
50591;SDS011;36548;50.506;30.834;2023-02-01T01:32:22;9.03;;;6.37;;
50591;SDS011;36548;50.506;30.834;2023-02-01T01:33:31;8.13;;;6.63;;
50591;SDS011;36548;50.506;30.834;2023-02-01T01:34:48;8.03;;;6.95;;
50591;SDS011;36548;50.506;30.834;2023-02-01T01:35:57;8.62;;;6.33;;
50591;SDS011;36548;50.506;30.834;2023-02-01T01:37:12;9.17;;;6.32;;
50591;SDS011;36548;50.506;30.834;2023-02-01T01:38:22;9.38;;;6.12;;
50591;SDS011;36548;50.506;30.834;2023-02-01T01:39:31;10.32;;;6.48;;
50591;SDS011;36548;50.506;30.834;2023-02-01T01:40:44;10.73;;;7.45;;
50591;SDS011;36548;50.506;30.834;2023-02-01T01:41:57;10.67;;;7.20;;
50591;SDS011;36548;50.506;30.834;2023-02-01T01:43:13;9.87;;;7.33;;
50591;SDS011;36548;50.506;30.834;2023-02-01T01:46:05;10.62;;;7.57;;
50591;SDS011;36548;50.506;30.834;2023-02-01T01:47:14;9.58;;;7.62;;
50591;SDS011;36548;50.506;30.834;2023-02-01T01:48:25;10.07;;;7.92;;
50591;SDS011;36548;50.506;30.834;2023-02-01T01:49:38;11.23;;;7.60;;
50591;SDS011;36548;50.506;30.834;2023-02-01T01:50:50;11.95;;;8.05;;
50591;SDS011;36548;50.506;30.834;2023-02-01T01:52:03;13.84;;;8.82;;
50591;SDS011;36548;50.506;30.834;2023-02-01T01:53:20;12.90;;;7.90;;
50591;SDS011;36548;50.506;30.834;2023-02-01T01:54:33;11.17;;;8.03;;
50591;SDS011;36548;50.506;30.834;2023-02-01T01:55:52;10.97;;;7.78;;
50591;SDS011;36548;50.506;30.834;2023-02-01T01:57:06;11.10;;;8.75;;
50591;SDS011;36548;50.506;30.834;2023-02-01T01:58:24;14.17;;;9.78;;
50591;SDS011;36548;50.506;30.834;2023-02-01T01:59:36;12.27;;;9.60;;
50591;SDS011;36548;50.506;30.834;2023-02-01T02:00:48;12.08;;;9.37;;
50591;SDS011;36548;50.506;30.834;2023-02-01T02:01:58;9.63;;;7.45;;
50591;SDS011;36548;50.506;30.834;2023-02-01T02:03:14;10.68;;;7.33;;
50591;SDS011;36548;50.506;30.834;2023-02-01T02:04:30;10.40;;;8.40;;
50591;SDS011;36548;50.506;30.834;2023-02-01T02:05:42;9.92;;;8.47;;
50591;SDS011;36548;50.506;30.834;2023-02-01T02:07:00;9.10;;;7.85;;
50591;SDS011;36548;50.506;30.834;2023-02-01T02:08:23;11.40;;;8.88;;
50591;SDS011;36548;50.506;30.834;2023-02-01T02:09:36;12.42;;;9.90;;
50591;SDS011;36548;50.506;30.834;2023-02-01T02:10:51;10.43;;;8.33;;
50591;SDS011;36548;50.506;30.834;2023-02-01T02:12:10;12.02;;;9.30;;
50591;SDS011;36548;50.506;30.834;2023-02-01T02:13:19;13.30;;;10.75;;
50591;SDS011;36548;50.506;30.834;2023-02-01T02:14:31;12.40;;;11.08;;
50591;SDS011;36548;50.506;30.834;2023-02-01T02:15:45;14.83;;;11.85;;
50591;SDS011;36548;50.506;30.834;2023-02-01T02:24:50;14.65;;;11.15;;
50591;SDS011;36548;50.506;30.834;2023-02-01T02:38:50;13.28;;;8.30;;
50591;SDS011;36548;50.506;30.834;2023-02-01T02:40:12;10.95;;;8.70;;
50591;SDS011;36548;50.506;30.834;2023-02-01T02:41:59;12.98;;;10.87;;
50591;SDS011;36548;50.506;30.834;2023-02-01T02:43:35;11.34;;;9.06;;
50591;SDS011;36548;50.506;30.834;2023-02-01T02:45:17;16.85;;;11.90;;
50591;SDS011;36548;50.506;30.834;2023-02-01T02:46:49;20.07;;;15.43;;
50591;SDS011;36548;50.506;30.834;2023-02-01T02:48:30;20.72;;;15.02;;
50591;SDS011;36548;50.506;30.834;2023-02-01T02:49:46;17.07;;;12.10;;
50591;SDS011;36548;50.506;30.834;2023-02-01T02:51:38;13.03;;;9.28;;
50591;SDS011;36548;50.506;30.834;2023-02-01T02:55:09;12.50;;;8.85;;
50591;SDS011;36548;50.506;30.834;2023-02-01T02:57:48;12.40;;;7.93;;
50591;SDS011;36548;50.506;30.834;2023-02-01T02:59:17;9.82;;;6.37;;
50591;SDS011;36548;50.506;30.834;2023-02-01T03:00:49;9.85;;;6.77;;
50591;SDS011;36548;50.506;30.834;2023-02-01T03:02:21;9.13;;;5.90;;
50591;SDS011;36548;50.506;30.834;2023-02-01T03:03:50;9.10;;;6.17;;
50591;SDS011;36548;50.506;30.834;2023-02-01T03:05:20;10.73;;;6.68;;
50591;SDS011;36548;50.506;30.834;2023-02-01T03:06:36;7.87;;;5.73;;
50591;SDS011;36548;50.506;30.834;2023-02-01T03:07:49;8.85;;;5.97;;
50591;SDS011;36548;50.506;30.834;2023-02-01T03:09:08;7.82;;;5.83;;
50591;SDS011;36548;50.506;30.834;2023-02-01T03:11:45;8.95;;;6.18;;
50591;SDS011;36548;50.506;30.834;2023-02-01T03:15:13;10.55;;;6.50;;
50591;SDS011;36548;50.506;30.834;2023-02-01T03:16:24;8.50;;;6.80;;
50591;SDS011;36548;50.506;30.834;2023-02-01T03:17:49;9.83;;;7.88;;
50591;SDS011;36548;50.506;30.834;2023-02-01T03:19:00;15.20;;;9.15;;
50591;SDS011;36548;50.506;30.834;2023-02-01T03:20:22;14.08;;;9.57;;
50591;SDS011;36548;50.506;30.834;2023-02-01T03:22:47;9.87;;;7.43;;
50591;SDS011;36548;50.506;30.834;2023-02-01T03:24:00;9.90;;;7.12;;
50591;SDS011;36548;50.506;30.834;2023-02-01T03:25:14;10.90;;;7.60;;
50591;SDS011;36548;50.506;30.834;2023-02-01T03:26:26;10.32;;;7.65;;
50591;SDS011;36548;50.506;30.834;2023-02-01T03:27:51;9.08;;;6.98;;
50591;SDS011;36548;50.506;30.834;2023-02-01T03:29:12;9.58;;;7.37;;
50591;SDS011;36548;50.506;30.834;2023-02-01T03:30:25;10.00;;;7.35;;
50591;SDS011;36548;50.506;30.834;2023-02-01T03:31:36;8.12;;;6.93;;
50591;SDS011;36548;50.506;30.834;2023-02-01T03:32:53;9.20;;;6.97;;
50591;SDS011;36548;50.506;30.834;2023-02-01T03:34:11;9.95;;;7.07;;
50591;SDS011;36548;50.506;30.834;2023-02-01T03:36:51;11.32;;;8.12;;
50591;SDS011;36548;50.506;30.834;2023-02-01T03:40:00;11.68;;;7.92;;
50591;SDS011;36548;50.506;30.834;2023-02-01T03:42:49;12.47;;;8.33;;
50591;SDS011;36548;50.506;30.834;2023-02-01T03:45:28;13.22;;;9.10;;
50591;SDS011;36548;50.506;30.834;2023-02-01T03:46:46;15.22;;;9.95;;
50591;SDS011;36548;50.506;30.834;2023-02-01T03:47:56;14.27;;;9.82;;
50591;SDS011;36548;50.506;30.834;2023-02-01T03:49:17;13.08;;;9.53;;
50591;SDS011;36548;50.506;30.834;2023-02-01T03:50:30;13.05;;;9.53;;
50591;SDS011;36548;50.506;30.834;2023-02-01T03:51:50;13.30;;;8.45;;
50591;SDS011;36548;50.506;30.834;2023-02-01T03:53:03;11.68;;;8.58;;
50591;SDS011;36548;50.506;30.834;2023-02-01T03:54:18;10.90;;;7.55;;
50591;SDS011;36548;50.506;30.834;2023-02-01T03:55:29;11.23;;;8.03;;
50591;SDS011;36548;50.506;30.834;2023-02-01T03:56:42;9.78;;;7.80;;
50591;SDS011;36548;50.506;30.834;2023-02-01T04:00:29;9.00;;;6.97;;
50591;SDS011;36548;50.506;30.834;2023-02-01T04:01:39;8.20;;;6.90;;
50591;SDS011;36548;50.506;30.834;2023-02-01T04:02:50;9.63;;;7.30;;
50591;SDS011;36548;50.506;30.834;2023-02-01T04:05:10;8.65;;;6.78;;
50591;SDS011;36548;50.506;30.834;2023-02-01T04:06:22;9.23;;;7.55;;
50591;SDS011;36548;50.506;30.834;2023-02-01T04:07:35;11.00;;;8.05;;
50591;SDS011;36548;50.506;30.834;2023-02-01T04:08:50;8.43;;;6.83;;
50591;SDS011;36548;50.506;30.834;2023-02-01T04:10:00;10.00;;;7.30;;
50591;SDS011;36548;50.506;30.834;2023-02-01T04:11:16;10.63;;;7.58;;
50591;SDS011;36548;50.506;30.834;2023-02-01T04:12:26;10.10;;;7.05;;
50591;SDS011;36548;50.506;30.834;2023-02-01T04:13:36;10.32;;;8.17;;
50591;SDS011;36548;50.506;30.834;2023-02-01T04:14:45;10.42;;;8.37;;
50591;SDS011;36548;50.506;30.834;2023-02-01T04:15:54;13.27;;;9.00;;
50591;SDS011;36548;50.506;30.834;2023-02-01T04:17:04;12.16;;;9.46;;
50591;SDS011;36548;50.506;30.834;2023-02-01T04:18:13;10.82;;;9.17;;
50591;SDS011;36548;50.506;30.834;2023-02-01T04:19:22;11.42;;;8.00;;
50591;SDS011;36548;50.506;30.834;2023-02-01T04:20:32;13.68;;;8.48;;
50591;SDS011;36548;50.506;30.834;2023-02-01T04:21:41;9.77;;;7.60;;
50591;SDS011;36548;50.506;30.834;2023-02-01T04:22:56;13.55;;;7.70;;
50591;SDS011;36548;50.506;30.834;2023-02-01T04:24:06;11.87;;;7.57;;
50591;SDS011;36548;50.506;30.834;2023-02-01T04:25:17;10.40;;;7.98;;
50591;SDS011;36548;50.506;30.834;2023-02-01T04:26:32;11.48;;;7.88;;
50591;SDS011;36548;50.506;30.834;2023-02-01T04:27:42;10.00;;;7.50;;
50591;SDS011;36548;50.506;30.834;2023-02-01T04:28:51;10.33;;;7.70;;
50591;SDS011;36548;50.506;30.834;2023-02-01T04:30:01;9.28;;;7.17;;
50591;SDS011;36548;50.506;30.834;2023-02-01T04:31:16;9.95;;;7.35;;
50591;SDS011;36548;50.506;30.834;2023-02-01T04:32:26;11.47;;;8.20;;
50591;SDS011;36548;50.506;30.834;2023-02-01T04:33:36;10.24;;;7.86;;
50591;SDS011;36548;50.506;30.834;2023-02-01T04:34:46;9.23;;;7.60;;
50591;SDS011;36548;50.506;30.834;2023-02-01T04:35:55;10.25;;;8.45;;
50591;SDS011;36548;50.506;30.834;2023-02-01T04:37:04;9.93;;;8.03;;
50591;SDS011;36548;50.506;30.834;2023-02-01T04:38:13;10.90;;;8.03;;
50591;SDS011;36548;50.506;30.834;2023-02-01T04:39:22;10.05;;;7.85;;
50591;SDS011;36548;50.506;30.834;2023-02-01T04:40:32;10.47;;;7.68;;
50591;SDS011;36548;50.506;30.834;2023-02-01T04:41:42;11.05;;;8.45;;
50591;SDS011;36548;50.506;30.834;2023-02-01T04:42:52;10.80;;;8.43;;
50591;SDS011;36548;50.506;30.834;2023-02-01T04:44:02;12.33;;;8.67;;
50591;SDS011;36548;50.506;30.834;2023-02-01T04:45:18;10.92;;;8.73;;
50591;SDS011;36548;50.506;30.834;2023-02-01T04:46:28;14.32;;;10.54;;
50591;SDS011;36548;50.506;30.834;2023-02-01T04:47:37;11.90;;;9.08;;
50591;SDS011;36548;50.506;30.834;2023-02-01T04:48:46;11.95;;;8.87;;
50591;SDS011;36548;50.506;30.834;2023-02-01T04:49:55;11.37;;;8.67;;
50591;SDS011;36548;50.506;30.834;2023-02-01T04:51:05;12.15;;;8.83;;
50591;SDS011;36548;50.506;30.834;2023-02-01T04:52:14;12.25;;;8.82;;
50591;SDS011;36548;50.506;30.834;2023-02-01T04:53:23;10.72;;;7.53;;
50591;SDS011;36548;50.506;30.834;2023-02-01T04:54:32;13.78;;;8.38;;
50591;SDS011;36548;50.506;30.834;2023-02-01T04:55:48;10.97;;;7.85;;
50591;SDS011;36548;50.506;30.834;2023-02-01T04:56:58;11.32;;;8.30;;
50591;SDS011;36548;50.506;30.834;2023-02-01T04:58:08;10.17;;;8.45;;
50591;SDS011;36548;50.506;30.834;2023-02-01T04:59:18;10.65;;;8.05;;
50591;SDS011;36548;50.506;30.834;2023-02-01T05:00:27;11.52;;;8.22;;
50591;SDS011;36548;50.506;30.834;2023-02-01T05:01:42;10.40;;;8.07;;
50591;SDS011;36548;50.506;30.834;2023-02-01T05:02:54;10.73;;;8.37;;
50591;SDS011;36548;50.506;30.834;2023-02-01T05:04:05;10.65;;;8.12;;
50591;SDS011;36548;50.506;30.834;2023-02-01T05:05:14;13.10;;;8.50;;
50591;SDS011;36548;50.506;30.834;2023-02-01T05:06:23;12.18;;;8.43;;
50591;SDS011;36548;50.506;30.834;2023-02-01T05:07:38;10.94;;;8.24;;
50591;SDS011;36548;50.506;30.834;2023-02-01T05:08:47;14.47;;;8.98;;
50591;SDS011;36548;50.506;30.834;2023-02-01T05:09:56;12.38;;;9.95;;
50591;SDS011;36548;50.506;30.834;2023-02-01T05:11:06;12.30;;;8.40;;
50591;SDS011;36548;50.506;30.834;2023-02-01T05:13:43;11.25;;;8.55;;
50591;SDS011;36548;50.506;30.834;2023-02-01T05:14:58;10.52;;;8.44;;
50591;SDS011;36548;50.506;30.834;2023-02-01T05:16:08;12.35;;;8.62;;
50591;SDS011;36548;50.506;30.834;2023-02-01T05:17:17;12.33;;;8.72;;
50591;SDS011;36548;50.506;30.834;2023-02-01T05:18:26;11.83;;;8.50;;
50591;SDS011;36548;50.506;30.834;2023-02-01T05:19:59;14.67;;;9.52;;
50591;SDS011;36548;50.506;30.834;2023-02-01T05:21:09;13.02;;;9.43;;
50591;SDS011;36548;50.506;30.834;2023-02-01T05:22:19;13.02;;;9.48;;
50591;SDS011;36548;50.506;30.834;2023-02-01T05:23:30;12.58;;;10.08;;
50591;SDS011;36548;50.506;30.834;2023-02-01T05:24:40;15.85;;;10.95;;
50591;SDS011;36548;50.506;30.834;2023-02-01T05:25:49;12.75;;;9.25;;
50591;SDS011;36548;50.506;30.834;2023-02-01T05:26:58;12.44;;;8.36;;
50591;SDS011;36548;50.506;30.834;2023-02-01T05:28:08;13.05;;;10.00;;
50591;SDS011;36548;50.506;30.834;2023-02-01T05:29:23;11.22;;;8.48;;
50591;SDS011;36548;50.506;30.834;2023-02-01T05:30:32;10.83;;;7.95;;
50591;SDS011;36548;50.506;30.834;2023-02-01T05:31:49;13.70;;;8.95;;
50591;SDS011;36548;50.506;30.834;2023-02-01T05:32:59;12.75;;;9.80;;
50591;SDS011;36548;50.506;30.834;2023-02-01T05:34:09;13.57;;;10.32;;
50591;SDS011;36548;50.506;30.834;2023-02-01T05:35:24;14.40;;;10.85;;
50591;SDS011;36548;50.506;30.834;2023-02-01T05:36:32;13.80;;;10.58;;
50591;SDS011;36548;50.506;30.834;2023-02-01T05:37:41;13.52;;;10.63;;
50591;SDS011;36548;50.506;30.834;2023-02-01T05:38:50;14.97;;;10.28;;
50591;SDS011;36548;50.506;30.834;2023-02-01T05:39:59;13.95;;;9.47;;
50591;SDS011;36548;50.506;30.834;2023-02-01T05:41:14;22.00;;;17.48;;
50591;SDS011;36548;50.506;30.834;2023-02-01T05:42:24;14.85;;;11.15;;
50591;SDS011;36548;50.506;30.834;2023-02-01T05:43:33;13.37;;;10.83;;
50591;SDS011;36548;50.506;30.834;2023-02-01T05:44:48;14.78;;;9.97;;
50591;SDS011;36548;50.506;30.834;2023-02-01T05:45:57;15.90;;;10.87;;
50591;SDS011;36548;50.506;30.834;2023-02-01T05:47:12;15.35;;;10.73;;
50591;SDS011;36548;50.506;30.834;2023-02-01T05:48:21;13.03;;;9.03;;
50591;SDS011;36548;50.506;30.834;2023-02-01T05:49:29;12.03;;;9.23;;
50591;SDS011;36548;50.506;30.834;2023-02-01T05:50:39;11.98;;;9.55;;
50591;SDS011;36548;50.506;30.834;2023-02-01T05:51:54;12.95;;;9.00;;
50591;SDS011;36548;50.506;30.834;2023-02-01T05:53:04;13.80;;;8.55;;
50591;SDS011;36548;50.506;30.834;2023-02-01T09:27:29;18.88;;;11.57;;
50591;SDS011;36548;50.506;30.834;2023-02-01T09:28:44;18.50;;;11.45;;
50591;SDS011;36548;50.506;30.834;2023-02-01T09:29:52;15.35;;;9.97;;
50591;SDS011;36548;50.506;30.834;2023-02-01T09:31:01;12.87;;;9.02;;
50591;SDS011;36548;50.506;30.834;2023-02-01T09:32:16;11.68;;;7.77;;
50591;SDS011;36548;50.506;30.834;2023-02-01T09:33:27;14.75;;;8.33;;
50591;SDS011;36548;50.506;30.834;2023-02-01T09:34:38;9.90;;;7.30;;
50591;SDS011;36548;50.506;30.834;2023-02-01T09:35:48;11.85;;;9.05;;
50591;SDS011;36548;50.506;30.834;2023-02-01T09:36:57;9.70;;;7.25;;
50591;SDS011;36548;50.506;30.834;2023-02-01T09:38:06;10.10;;;7.35;;
50591;SDS011;36548;50.506;30.834;2023-02-01T09:39:16;10.30;;;6.50;;
50591;SDS011;36548;50.506;30.834;2023-02-01T09:40:26;10.20;;;6.77;;
50591;SDS011;36548;50.506;30.834;2023-02-01T09:41:54;9.10;;;6.20;;
50591;SDS011;36548;50.506;30.834;2023-02-01T09:47:30;10.42;;;6.28;;
50591;SDS011;36548;50.506;30.834;2023-02-01T09:48:40;11.25;;;6.75;;
50591;SDS011;36548;50.506;30.834;2023-02-01T09:49:56;11.98;;;6.75;;
50591;SDS011;36548;50.506;30.834;2023-02-01T09:51:19;9.65;;;6.10;;
50591;SDS011;36548;50.506;30.834;2023-02-01T09:52:34;9.73;;;7.05;;
50591;SDS011;36548;50.506;30.834;2023-02-01T09:53:47;10.08;;;6.17;;
50591;SDS011;36548;50.506;30.834;2023-02-01T09:55:19;8.25;;;6.45;;
50591;SDS011;36548;50.506;30.834;2023-02-01T09:56:29;9.73;;;6.32;;
50591;SDS011;36548;50.506;30.834;2023-02-01T09:58:04;11.77;;;7.70;;
50591;SDS011;36548;50.506;30.834;2023-02-01T09:59:36;9.42;;;7.15;;
50591;SDS011;36548;50.506;30.834;2023-02-01T10:00:59;9.72;;;6.48;;
50591;SDS011;36548;50.506;30.834;2023-02-01T10:02:21;11.40;;;6.75;;
50591;SDS011;36548;50.506;30.834;2023-02-01T10:03:38;9.77;;;6.15;;
50591;SDS011;36548;50.506;30.834;2023-02-01T10:04:47;11.00;;;6.13;;
50591;SDS011;36548;50.506;30.834;2023-02-01T10:07:22;9.40;;;5.43;;
50591;SDS011;36548;50.506;30.834;2023-02-01T10:15:03;10.05;;;5.85;;
50591;SDS011;36548;50.506;30.834;2023-02-01T10:16:27;8.08;;;5.12;;
50591;SDS011;36548;50.506;30.834;2023-02-01T10:20:42;8.97;;;6.33;;
50591;SDS011;36548;50.506;30.834;2023-02-01T10:21:59;10.12;;;6.93;;
50591;SDS011;36548;50.506;30.834;2023-02-01T10:25:04;7.97;;;6.50;;
50591;SDS011;36548;50.506;30.834;2023-02-01T10:26:19;10.58;;;7.63;;
50591;SDS011;36548;50.506;30.834;2023-02-01T10:27:35;10.30;;;7.35;;
50591;SDS011;36548;50.506;30.834;2023-02-01T10:28:44;9.42;;;6.57;;
50591;SDS011;36548;50.506;30.834;2023-02-01T10:31:34;10.40;;;6.90;;
50591;SDS011;36548;50.506;30.834;2023-02-01T10:32:47;10.43;;;7.58;;
50591;SDS011;36548;50.506;30.834;2023-02-01T10:34:17;11.30;;;7.37;;
50591;SDS011;36548;50.506;30.834;2023-02-01T10:35:31;11.55;;;7.92;;
50591;SDS011;36548;50.506;30.834;2023-02-01T10:36:55;14.77;;;8.57;;
50591;SDS011;36548;50.506;30.834;2023-02-01T10:38:07;11.22;;;7.43;;
50591;SDS011;36548;50.506;30.834;2023-02-01T10:39:19;13.20;;;8.30;;
50591;SDS011;36548;50.506;30.834;2023-02-01T10:40:28;9.57;;;7.07;;
50591;SDS011;36548;50.506;30.834;2023-02-01T10:41:38;10.43;;;7.07;;
50591;SDS011;36548;50.506;30.834;2023-02-01T10:42:50;12.67;;;7.23;;
50591;SDS011;36548;50.506;30.834;2023-02-01T10:44:02;11.68;;;7.03;;
50591;SDS011;36548;50.506;30.834;2023-02-01T10:45:16;10.75;;;7.50;;
50591;SDS011;36548;50.506;30.834;2023-02-01T10:46:26;12.28;;;7.80;;
50591;SDS011;36548;50.506;30.834;2023-02-01T10:47:35;13.57;;;8.05;;
50591;SDS011;36548;50.506;30.834;2023-02-01T10:48:44;11.08;;;7.33;;
50591;SDS011;36548;50.506;30.834;2023-02-01T10:51:14;10.38;;;7.18;;
50591;SDS011;36548;50.506;30.834;2023-02-01T10:52:33;11.12;;;7.23;;
50591;SDS011;36548;50.506;30.834;2023-02-01T10:53:50;12.55;;;6.37;;
50591;SDS011;36548;50.506;30.834;2023-02-01T10:56:37;9.68;;;6.22;;
50591;SDS011;36548;50.506;30.834;2023-02-01T10:57:54;9.15;;;6.53;;
50591;SDS011;36548;50.506;30.834;2023-02-01T10:59:11;10.38;;;6.40;;
50591;SDS011;36548;50.506;30.834;2023-02-01T11:00:20;8.65;;;6.40;;
50591;SDS011;36548;50.506;30.834;2023-02-01T11:01:36;8.72;;;6.63;;
50591;SDS011;36548;50.506;30.834;2023-02-01T11:02:55;12.47;;;6.98;;
50591;SDS011;36548;50.506;30.834;2023-02-01T11:04:05;23.50;;;15.55;;
50591;SDS011;36548;50.506;30.834;2023-02-01T11:05:23;20.82;;;13.45;;
50591;SDS011;36548;50.506;30.834;2023-02-01T11:06:35;72.25;;;35.52;;
50591;SDS011;36548;50.506;30.834;2023-02-01T11:07:48;34.95;;;22.90;;
50591;SDS011;36548;50.506;30.834;2023-02-01T11:10:36;20.68;;;12.98;;
50591;SDS011;36548;50.506;30.834;2023-02-01T11:15:37;11.75;;;7.70;;
50591;SDS011;36548;50.506;30.834;2023-02-01T11:16:48;10.63;;;7.43;;
50591;SDS011;36548;50.506;30.834;2023-02-01T11:18:07;9.78;;;7.67;;
50591;SDS011;36548;50.506;30.834;2023-02-01T11:19:19;11.77;;;8.40;;
50591;SDS011;36548;50.506;30.834;2023-02-01T11:21:50;8.50;;;7.05;;
50591;SDS011;36548;50.506;30.834;2023-02-01T11:23:02;12.03;;;6.37;;
50591;SDS011;36548;50.506;30.834;2023-02-01T11:24:16;8.18;;;6.08;;
50591;SDS011;36548;50.506;30.834;2023-02-01T11:25:33;8.75;;;6.70;;
50591;SDS011;36548;50.506;30.834;2023-02-01T11:26:45;9.15;;;6.15;;
50591;SDS011;36548;50.506;30.834;2023-02-01T11:27:54;10.17;;;6.25;;
50591;SDS011;36548;50.506;30.834;2023-02-01T11:30:21;9.98;;;6.12;;
50591;SDS011;36548;50.506;30.834;2023-02-01T11:31:37;9.15;;;6.10;;
50591;SDS011;36548;50.506;30.834;2023-02-01T11:32:55;10.37;;;7.08;;
50591;SDS011;36548;50.506;30.834;2023-02-01T11:34:07;8.07;;;6.08;;
50591;SDS011;36548;50.506;30.834;2023-02-01T11:35:25;9.45;;;6.53;;
50591;SDS011;36548;50.506;30.834;2023-02-01T11:36:36;9.75;;;6.22;;
50591;SDS011;36548;50.506;30.834;2023-02-01T11:37:54;9.13;;;6.25;;
50591;SDS011;36548;50.506;30.834;2023-02-01T11:39:16;9.65;;;7.03;;
50591;SDS011;36548;50.506;30.834;2023-02-01T11:40:27;9.70;;;6.25;;
50591;SDS011;36548;50.506;30.834;2023-02-01T11:44:35;9.78;;;7.00;;
50591;SDS011;36548;50.506;30.834;2023-02-01T11:45:58;10.17;;;7.55;;
50591;SDS011;36548;50.506;30.834;2023-02-01T11:48:32;10.47;;;7.25;;
50591;SDS011;36548;50.506;30.834;2023-02-01T11:49:43;7.95;;;6.28;;
50591;SDS011;36548;50.506;30.834;2023-02-01T11:50:59;11.80;;;6.70;;
50591;SDS011;36548;50.506;30.834;2023-02-01T11:52:26;10.98;;;7.33;;
50591;SDS011;36548;50.506;30.834;2023-02-01T11:53:58;7.72;;;5.67;;
50591;SDS011;36548;50.506;30.834;2023-02-01T11:58:31;6.73;;;5.02;;
50591;SDS011;36548;50.506;30.834;2023-02-01T12:01:32;9.15;;;5.10;;
50591;SDS011;36548;50.506;30.834;2023-02-01T12:09:09;8.02;;;5.73;;
50591;SDS011;36548;50.506;30.834;2023-02-01T12:26:44;9.70;;;6.58;;
50591;SDS011;36548;50.506;30.834;2023-02-01T12:28:15;9.80;;;7.36;;
50591;SDS011;36548;50.506;30.834;2023-02-01T12:33:59;11.20;;;7.40;;
50591;SDS011;36548;50.506;30.834;2023-02-01T12:36:46;12.47;;;8.13;;
50591;SDS011;36548;50.506;30.834;2023-02-01T12:42:37;15.68;;;9.08;;